Adelma Beach, Washington
Current Conditions -  °F | °C
As of 8:56 AM on Tuesday 27 Jan 2015 (Local Time) from KNUW Reporting Station
Light Rain Light Rain  
Wind Chill: 52°   Ceiling: 2400
Heat Index: 52°   Visibility: 8mi
Dew Point: 47°   Wind: 7mph
Humidity: 83%   Direction: 130°SE
Pressure: 30.05"   Gusts: NA
Location:  48.026°N, 122.859°W
Report Text: KNUW 271656Z 13006KT 8SM -RA SCT018 OVC024 11/08 A3005 RMK AO2 RAB55 CIG 019 E SLP180 P0000 T01110083 VISNO E $
Loading
Personal Weather Stations






























Interactive Weather Map New forecast layout! Learn more

10-Day Weather Forecast

Advertisements
Track Severe Weather on mobile